createdAt,value
2019-03-23T00:36:52.044Z,9.80
2019-03-23T00:42:15.222Z,9.30
2019-03-23T00:44:50.524Z,10.15
2019-03-23T01:20:49.567Z,9.88
2019-03-23T01:25:45.868Z,10.10
2019-03-23T01:28:15.384Z,8.93
2019-03-23T01:30:44.158Z,9.85
2019-03-23T01:33:15.362Z,9.38
2019-03-23T01:35:44.134Z,11.20
2019-03-23T01:38:12.923Z,10.00
2019-03-23T01:40:43.224Z,8.38
2019-03-23T01:43:12.071Z,9.85
2019-03-23T01:45:40.735Z,9.18
2019-03-23T01:48:09.649Z,8.43
2019-03-23T01:59:24.358Z,8.83
2019-03-23T02:04:55.594Z,8.00
2019-03-23T02:07:27.527Z,8.68
2019-03-23T02:10:00.276Z,7.83
2019-03-23T02:27:51.239Z,9.40
2019-03-23T02:30:38.232Z,9.10
2019-03-23T02:38:59.809Z,9.68
2019-03-23T02:41:40.982Z,10.30
2019-03-23T02:55:26.483Z,11.43
2019-03-23T02:58:01.163Z,9.78
2019-03-23T03:00:34.239Z,12.07
2019-03-23T03:03:11.838Z,10.58
2019-03-23T03:06:00.152Z,11.15
2019-03-23T03:08:32.847Z,11.10
2019-03-23T03:16:46.940Z,10.53
2019-03-23T03:19:36.425Z,11.57
2019-03-23T03:22:10.437Z,10.50
2019-03-23T03:24:43.862Z,10.55
2019-03-23T03:27:30.638Z,10.15
2019-03-23T03:30:10.367Z,11.43
2019-03-23T03:32:48.081Z,12.15
2019-03-23T03:35:19.158Z,13.22
2019-03-23T03:43:42.506Z,12.63
2019-03-23T03:46:29.312Z,10.90
2019-03-23T03:49:12.245Z,12.45
2019-03-23T03:51:36.123Z,13.32
2019-03-23T03:54:09.744Z,12.85
2019-03-23T03:56:45.043Z,11.30
2019-03-23T03:59:16.569Z,12.45
2019-03-23T04:01:48.140Z,13.88
2019-03-23T04:04:23.505Z,15.00
2019-03-23T04:06:54.236Z,14.43
2019-03-23T04:09:27.275Z,16.48
2019-03-23T04:11:58.733Z,15.75
2019-03-23T04:14:33.439Z,15.53
2019-03-23T04:17:11.783Z,15.63
2019-03-23T04:19:42.041Z,15.70
2019-03-23T04:22:23.836Z,16.52
2019-03-23T04:24:54.773Z,15.43
2019-03-23T04:27:27.568Z,16.10
2019-03-23T04:29:59.762Z,15.80
2019-03-23T04:32:31.380Z,14.60
2019-03-23T04:35:02.293Z,12.98
2019-03-23T04:37:33.705Z,14.68
2019-03-23T04:40:06.893Z,15.48
2019-03-23T04:42:40.646Z,15.32
2019-03-23T04:45:12.752Z,14.93
2019-03-23T04:47:46.284Z,13.78
2019-03-23T04:50:24.963Z,14.03
2019-03-23T04:52:59.764Z,14.20
2019-03-23T04:55:34.278Z,12.50
2019-03-23T04:58:14.676Z,12.00
2019-03-23T05:00:43.457Z,13.68
2019-03-23T05:03:13.101Z,13.40
2019-03-23T05:05:41.894Z,14.23
2019-03-23T05:08:10.595Z,12.60
2019-03-23T05:10:39.780Z,14.23
2019-03-23T05:13:09.189Z,11.48
2019-03-23T05:15:37.971Z,13.53
2019-03-23T05:18:07.179Z,13.10
2019-03-23T05:20:36.056Z,12.60
2019-03-23T05:23:04.818Z,13.35
2019-03-23T05:28:11.338Z,12.00
2019-03-23T05:33:37.444Z,12.55
2019-03-23T05:36:15.411Z,15.03
2019-03-23T05:38:55.681Z,13.88
2019-03-23T05:44:19.564Z,11.83
2019-03-23T05:46:54.230Z,12.68
2019-03-23T05:49:46.087Z,11.05
2019-03-23T05:55:06.835Z,11.18
2019-03-23T05:57:35.390Z,14.05
2019-03-23T06:00:06.476Z,12.35
2019-03-23T06:02:35.049Z,12.23
2019-03-23T06:05:04.627Z,12.23
2019-03-23T06:07:33.203Z,10.95
2019-03-23T06:10:01.845Z,12.73
2019-03-23T06:12:30.635Z,11.57
2019-03-23T06:14:59.202Z,11.97
2019-03-23T06:17:27.753Z,11.57
2019-03-23T06:19:56.302Z,14.23
2019-03-23T06:22:24.883Z,12.10
2019-03-23T06:24:53.426Z,11.95
2019-03-23T06:27:22.335Z,14.23
2019-03-23T06:29:50.871Z,14.68
2019-03-23T06:32:38.888Z,15.03
2019-03-23T06:37:36.075Z,12.63
2019-03-23T06:40:10.450Z,13.32
2019-03-23T06:42:38.919Z,14.45
2019-03-23T06:45:10.171Z,14.90
2019-03-23T06:47:38.734Z,15.03
2019-03-23T06:50:09.788Z,13.60
2019-03-23T06:52:39.891Z,14.78
2019-03-23T06:55:09.515Z,14.20
2019-03-23T06:57:38.142Z,13.38
2019-03-23T07:00:30.319Z,13.65
2019-03-23T07:02:58.851Z,12.70
2019-03-23T07:05:27.404Z,12.55
2019-03-23T07:07:55.985Z,11.50
2019-03-23T07:10:24.518Z,11.55
2019-03-23T07:12:53.349Z,12.50
2019-03-23T07:15:21.979Z,12.45
2019-03-23T07:17:50.544Z,14.28
2019-03-23T07:20:19.097Z,13.65
2019-03-23T07:22:47.649Z,13.90
2019-03-23T07:25:16.299Z,13.13
2019-03-23T07:27:45.255Z,13.22
2019-03-23T07:30:18.379Z,12.95
2019-03-23T07:32:47.028Z,12.18
2019-03-23T07:35:15.749Z,11.08
2019-03-23T07:37:44.717Z,11.43
2019-03-23T07:40:14.110Z,12.15
2019-03-23T07:42:42.719Z,12.78
2019-03-23T07:45:13.555Z,11.70
2019-03-23T07:47:42.035Z,12.70
2019-03-23T07:50:12.946Z,12.30
2019-03-23T07:52:41.600Z,13.80
2019-03-23T07:55:31.011Z,14.63
2019-03-23T07:57:59.583Z,15.25
2019-03-23T08:00:28.315Z,14.70
2019-03-23T08:02:56.935Z,14.60
2019-03-23T08:05:25.848Z,14.73
2019-03-23T08:07:54.472Z,14.23
2019-03-23T08:10:31.555Z,14.98
2019-03-23T08:13:00.197Z,15.55
2019-03-23T08:15:29.387Z,16.95
2019-03-23T08:17:58.108Z,16.73
2019-03-23T08:20:26.733Z,17.52
2019-03-23T08:22:55.544Z,17.82
2019-03-23T08:25:24.127Z,20.80
2019-03-23T08:27:52.752Z,26.07
2019-03-23T08:30:21.291Z,32.13
2019-03-23T08:32:49.865Z,31.05
2019-03-23T08:35:22.344Z,32.65
2019-03-23T08:37:50.935Z,33.98
2019-03-23T08:40:20.121Z,33.90
2019-03-23T08:42:48.686Z,34.67
2019-03-23T08:45:17.266Z,36.33
2019-03-23T08:47:45.814Z,37.85
2019-03-23T08:50:14.491Z,38.53
2019-03-23T08:52:43.067Z,39.78
2019-03-23T08:55:11.761Z,39.92
2019-03-23T08:57:41.421Z,41.18
2019-03-23T09:00:11.203Z,42.05
2019-03-23T09:02:39.933Z,40.73
2019-03-23T09:05:08.720Z,42.95
2019-03-23T09:07:37.289Z,42.10
2019-03-23T09:10:10.187Z,42.03
2019-03-23T09:12:38.747Z,42.75
2019-03-23T09:15:09.112Z,42.27
2019-03-23T09:17:37.707Z,41.63
2019-03-23T09:20:09.056Z,41.73
2019-03-23T09:22:37.658Z,42.45
2019-03-23T09:25:07.022Z,40.05
2019-03-23T09:27:36.002Z,42.95
2019-03-23T09:30:10.205Z,41.48
2019-03-23T09:32:38.762Z,41.77
2019-03-23T09:35:07.662Z,42.10
2019-03-23T09:37:38.193Z,40.95
2019-03-23T09:40:10.953Z,39.67
2019-03-23T09:42:38.063Z,40.85
2019-03-23T09:45:08.223Z,38.85
2019-03-23T09:47:37.011Z,40.73
2019-03-23T09:50:08.153Z,39.08
2019-03-23T09:52:36.762Z,38.88
2019-03-23T09:55:06.851Z,38.85
2019-03-23T09:57:35.779Z,40.10
2019-03-23T10:00:07.531Z,40.15
2019-03-23T10:02:36.063Z,38.58
2019-03-23T10:05:06.752Z,38.75
2019-03-23T10:07:35.414Z,38.13
2019-03-23T10:10:04.907Z,36.93
2019-03-23T10:12:33.527Z,37.30
2019-03-23T10:15:03.182Z,36.50
2019-03-23T10:17:31.743Z,37.60
2019-03-23T10:20:00.309Z,36.53
2019-03-23T10:22:28.907Z,36.08
2019-03-23T10:24:57.392Z,37.23
2019-03-23T10:27:25.988Z,36.30
2019-03-23T10:29:54.553Z,34.50
2019-03-23T10:32:23.107Z,34.98
2019-03-23T10:34:51.773Z,36.03
2019-03-23T10:37:20.319Z,36.17
2019-03-23T10:39:48.913Z,36.83
2019-03-23T10:42:17.450Z,35.75
2019-03-23T10:44:46.327Z,34.60
2019-03-23T10:47:14.984Z,35.75
2019-03-23T10:49:43.526Z,35.28
2019-03-23T10:52:12.382Z,36.63
2019-03-23T10:54:41.270Z,36.58
2019-03-23T10:57:10.023Z,35.50
2019-03-23T10:59:38.714Z,37.38
2019-03-23T11:02:10.711Z,36.60
2019-03-23T11:04:39.528Z,37.42
2019-03-23T11:07:08.076Z,38.15
2019-03-23T11:09:36.669Z,38.20
2019-03-23T11:12:05.340Z,38.83
2019-03-23T11:14:33.893Z,36.85
2019-03-23T11:17:02.550Z,37.83
2019-03-23T11:19:31.106Z,39.13
2019-03-23T11:21:59.980Z,38.25
2019-03-23T11:24:28.573Z,38.78
2019-03-23T11:26:57.174Z,38.38
2019-03-23T11:29:25.788Z,37.58
2019-03-23T11:31:55.998Z,40.80
2019-03-23T11:34:44.015Z,38.10
2019-03-23T11:39:40.388Z,40.25
2019-03-23T11:42:09.322Z,37.90
2019-03-23T11:44:37.821Z,38.90
2019-03-23T11:47:06.519Z,40.40
2019-03-23T11:49:35.483Z,40.63
2019-03-23T11:52:04.130Z,41.83
2019-03-23T11:54:32.692Z,42.15
2019-03-23T11:57:01.511Z,42.27
2019-03-23T11:59:30.059Z,43.83
2019-03-23T12:01:58.660Z,40.73
2019-03-23T12:04:27.288Z,39.85
2019-03-23T12:06:55.955Z,39.40
2019-03-23T12:09:24.571Z,40.78
2019-03-23T12:11:53.243Z,42.70
2019-03-23T12:14:21.811Z,44.30
2019-03-23T12:16:50.393Z,45.63
2019-03-23T12:19:18.990Z,43.80
2019-03-23T12:21:47.592Z,44.20
2019-03-23T12:24:16.114Z,44.73
2019-03-23T12:26:44.614Z,45.30
2019-03-23T12:29:13.238Z,46.23
2019-03-23T12:31:41.904Z,42.90
2019-03-23T12:34:10.457Z,45.05
2019-03-23T12:36:39.023Z,46.77
2019-03-23T12:39:07.659Z,46.63
2019-03-23T12:41:36.239Z,45.28
2019-03-23T12:44:04.890Z,44.50
2019-03-23T12:46:33.455Z,45.03
2019-03-23T12:49:02.287Z,46.90
2019-03-23T12:51:32.333Z,46.88
2019-03-23T12:54:00.954Z,46.63
2019-03-23T12:56:29.537Z,45.38
2019-03-23T12:58:58.160Z,44.23
2019-03-23T13:01:26.743Z,44.80
2019-03-23T13:03:55.300Z,47.53
2019-03-23T13:06:23.850Z,45.08
2019-03-23T13:08:52.427Z,44.50
2019-03-23T13:11:24.661Z,47.27
2019-03-23T13:13:52.210Z,44.55
2019-03-23T13:16:20.790Z,44.45
2019-03-23T13:18:49.343Z,44.73
2019-03-23T13:21:17.901Z,45.30
2019-03-23T13:23:46.481Z,45.05
2019-03-23T13:26:15.328Z,45.33
2019-03-23T13:28:43.883Z,46.37
2019-03-23T13:31:12.438Z,43.60
2019-03-23T13:33:41.021Z,41.18
2019-03-23T13:36:09.994Z,42.45
2019-03-23T13:38:38.615Z,43.48
2019-03-23T13:41:07.207Z,42.45
2019-03-23T13:43:35.763Z,39.92
2019-03-23T13:46:04.314Z,42.83
2019-03-23T13:48:32.824Z,41.48
2019-03-23T13:51:01.446Z,41.33
2019-03-23T13:53:30.050Z,43.23
2019-03-23T13:55:59.075Z,40.15
2019-03-23T13:58:27.622Z,40.75
2019-03-23T14:00:56.259Z,42.17
2019-03-23T14:03:24.906Z,39.80
2019-03-23T14:05:53.512Z,41.00
2019-03-23T14:08:22.142Z,40.20
2019-03-23T14:10:50.717Z,39.85
2019-03-23T14:13:19.275Z,39.78
2019-03-23T14:15:47.892Z,37.93
2019-03-23T14:18:17.476Z,38.23
2019-03-23T14:20:46.303Z,38.98
2019-03-23T14:23:14.843Z,36.33
2019-03-23T14:25:43.467Z,38.25
2019-03-23T14:28:12.049Z,34.80
2019-03-23T14:30:40.607Z,31.97
2019-03-23T14:33:09.212Z,33.55
2019-03-23T14:35:37.762Z,30.60
2019-03-23T14:38:06.307Z,32.33
2019-03-23T14:40:34.883Z,32.58
2019-03-23T14:43:03.448Z,29.57
2019-03-23T14:45:32.079Z,30.32
2019-03-23T14:48:00.663Z,29.82
2019-03-23T14:50:29.291Z,30.05
2019-03-23T14:52:57.832Z,29.77
2019-03-23T14:55:26.486Z,32.15
2019-03-23T14:57:55.354Z,29.92
2019-03-23T15:00:32.185Z,28.50
2019-03-23T15:03:00.809Z,30.17
2019-03-23T15:05:29.434Z,30.17
2019-03-23T15:07:58.199Z,29.65
2019-03-23T15:10:27.419Z,30.77
2019-03-23T15:12:56.466Z,31.42
2019-03-23T15:15:25.096Z,31.20
2019-03-23T15:17:54.500Z,29.57
2019-03-23T15:20:23.119Z,30.27
2019-03-23T15:22:52.034Z,31.77
2019-03-23T15:25:20.579Z,31.30
2019-03-23T15:27:49.126Z,31.62
2019-03-23T15:30:17.763Z,29.18
2019-03-23T15:32:46.370Z,30.62
2019-03-23T15:35:15.003Z,31.15
2019-03-23T15:37:43.700Z,30.88
2019-03-23T15:40:12.740Z,30.30
2019-03-23T15:42:41.733Z,31.20
2019-03-23T15:45:10.919Z,30.05
2019-03-23T15:47:39.499Z,30.68
2019-03-23T15:50:09.312Z,30.72
2019-03-23T15:52:38.037Z,30.48
2019-03-23T15:55:07.055Z,30.72
2019-03-23T15:57:36.697Z,29.25
2019-03-23T16:00:08.309Z,31.02
2019-03-23T16:02:36.938Z,28.80
2019-03-23T16:05:07.259Z,29.70
2019-03-23T16:07:36.335Z,29.32
2019-03-23T16:10:07.243Z,30.60
2019-03-23T16:12:37.786Z,30.45
2019-03-23T16:15:11.455Z,30.50
2019-03-23T16:17:40.086Z,29.55
2019-03-23T16:20:10.864Z,30.32
2019-03-23T16:22:39.511Z,29.55
2019-03-23T16:25:11.912Z,30.05
2019-03-23T16:27:40.466Z,28.00
2019-03-23T16:30:11.382Z,28.02
2019-03-23T16:32:39.951Z,30.35
2019-03-23T16:35:09.139Z,29.57
2019-03-23T16:37:37.705Z,30.02
2019-03-23T16:40:08.615Z,29.70
2019-03-23T16:42:44.549Z,30.08
2019-03-23T16:45:09.620Z,28.87
2019-03-23T16:47:38.309Z,30.27
2019-03-23T16:50:07.904Z,29.30
2019-03-23T16:52:38.214Z,28.95
2019-03-23T16:55:11.655Z,28.90
2019-03-23T16:57:40.559Z,29.40
2019-03-23T17:00:11.745Z,30.55
2019-03-23T17:02:40.359Z,30.30
2019-03-23T17:05:09.376Z,30.43
2019-03-23T17:07:37.929Z,30.32
2019-03-23T17:10:06.991Z,30.82
2019-03-23T17:12:35.731Z,30.88
2019-03-23T17:15:09.071Z,30.88
2019-03-23T17:17:37.954Z,31.25
2019-03-23T17:20:06.758Z,31.75
2019-03-23T17:22:35.475Z,30.80
2019-03-23T17:25:06.570Z,31.60
2019-03-23T17:27:35.104Z,33.10
2019-03-23T17:30:05.392Z,31.00
2019-03-23T17:32:34.179Z,32.00
2019-03-23T17:35:03.003Z,32.17
2019-03-23T17:37:31.562Z,33.38
2019-03-23T17:40:00.360Z,34.27
2019-03-23T17:42:28.908Z,31.60
2019-03-23T17:44:57.827Z,31.73
2019-03-23T17:47:26.340Z,33.30
2019-03-23T17:49:57.218Z,32.50
2019-03-23T17:52:25.570Z,33.28
2019-03-23T17:54:54.189Z,32.60
2019-03-23T17:57:23.218Z,32.60
2019-03-23T17:59:52.116Z,33.63
2019-03-23T18:02:20.978Z,34.40
2019-03-23T18:04:49.560Z,33.40
2019-03-23T18:07:18.232Z,33.78
2019-03-23T20:01:18.137Z,37.33
2019-03-23T23:40:58.553Z,40.03
2019-03-23T23:43:29.500Z,39.18
2019-03-23T23:46:05.737Z,39.60
2019-03-23T23:48:37.670Z,36.30
2019-03-23T23:51:13.685Z,35.80
